WetterOnline ( https://www.wetteronline.de )

Wetter aktuell Heidekrug

Aktuelles Wetter: Boizenburg (46m)

6-stündlich | Neueste Meldungen
Ortszeit Temperatur Wetter
Mo, 21.10. 20:00 14.4° C wolkig
Mo, 21.10. 14:00 13.5° C bewölkt
Mo, 21.10. 8:00 11.5° C bedeckt
Mo, 21.10. 2:00 11.5° C bedeckt
So, 20.10. 20:00 12.2° C leichter Regen
So, 20.10. 14:00 14.2° C bedeckt
So, 20.10. 8:00 10.6° C Sprühregen
So, 20.10. 2:00 11.7° C leichter Regen
Ortszeit Temperatur Wetter
Mo, 21.10. 21:30 13.6° C wolkenlos
Mo, 21.10. 21:20 13.6° C wolkenlos
Mo, 21.10. 21:10 13.6° C wolkenlos
Mo, 21.10. 21:00 13.7° C Nebel
Mo, 21.10. 20:50 13.7° C Nebel
Mo, 21.10. 20:40 13.5° C Nebel
Mo, 21.10. 20:30 14.0° C bewölkt
Mo, 21.10. 20:00 14.4° C wolkig
Mo, 21.10. 19:30 14.1° C bewölkt
Mo, 21.10. 19:00 14.3° C wolkig
Mo, 21.10. 18:30 14.3° C wolkig
Ortszeit Relative Feuchte Sichtweite
Mo, 21.10. 20:00 99% 3.9 km
Mo, 21.10. 14:00 98% 4.3 km
Mo, 21.10. 8:00 99% 4.7 km
Mo, 21.10. 2:00 97% 22 km
So, 20.10. 20:00 97% 6 km
So, 20.10. 14:00 86% 29 km
So, 20.10. 8:00 99% 6 km
So, 20.10. 2:00 96% 40 km
Ortszeit Relative Feuchte Sichtweite
Mo, 21.10. 21:30 99% 2.9 km
Mo, 21.10. 21:20 99% -
Mo, 21.10. 21:10 99% -
Mo, 21.10. 21:00 99% 0.6 km
Mo, 21.10. 20:50 99% -
Mo, 21.10. 20:40 99% -
Mo, 21.10. 20:30 99% 3.2 km
Mo, 21.10. 20:00 99% 3.9 km
Mo, 21.10. 19:30 99% 4.0 km
Mo, 21.10. 19:00 99% 6 km
Mo, 21.10. 18:30 97% 4.2 km
Ortszeit Niederschlagsmenge Niederschlagsart
Mo, 21.10. 20:00 0.7 l/m2 in 12 Std. -
Mo, 21.10. 14:00 0.7 l/m2 in 6 Std. Regen
Mo, 21.10. 8:00 8 l/m2 in 12 Std. Regen
Mo, 21.10. 2:00 7 l/m2 in 6 Std. Regen
So, 20.10. 20:00 4 l/m2 in 12 Std. Regen
So, 20.10. 14:00 0.2 l/m2 in 6 Std. Regen
So, 20.10. 8:00 0.6 l/m2 in 12 Std. Regen
So, 20.10. 2:00 0.5 l/m2 in 6 Std. Regen
Ortszeit Niederschlagsmenge Niederschlagsart
Mo, 21.10. 21:30 0.0 l/m2 in 1 Std. -
Mo, 21.10. 21:20 keine Meldung -
Mo, 21.10. 21:10 keine Meldung -
Mo, 21.10. 21:00 0.0 l/m2 in 1 Std. -
Mo, 21.10. 20:50 keine Meldung -
Mo, 21.10. 20:40 keine Meldung -
Mo, 21.10. 20:30 0.0 l/m2 in 1 Std. -
Mo, 21.10. 20:00 0.0 l/m2 in 1 Std. -
Mo, 21.10. 19:30 0.0 l/m2 in 1 Std. -
Mo, 21.10. 19:00 0.0 l/m2 in 1 Std. -
Mo, 21.10. 18:30 0.0 l/m2 in 1 Std. -
Ortszeit Stärke Spitze Richtung
km/h Bft. km/h Grad Sektor
Mo, 21.10. 20:00 4 1 14 110° O
Mo, 21.10. 14:00 7 2 25 120° SO
Mo, 21.10. 8:00 13 3 33 80° O
Mo, 21.10. 2:00 14 3 25 20° N
So, 20.10. 20:00 7 2 25 340° N
So, 20.10. 14:00 6 1 13 120° SO
So, 20.10. 8:00 4 1 14 150° SO
So, 20.10. 2:00 9 2 19 190° S
Ortszeit Stärke Spitze Richtung
km/h Bft. km/h Grad Sektor
Mo, 21.10. 21:30 9 2 11 130° SO
Mo, 21.10. 21:20 9 2 - 130° SO
Mo, 21.10. 21:10 7 2 - 130° SO
Mo, 21.10. 21:00 7 2 11 120° SO
Mo, 21.10. 20:50 7 2 - 120° SO
Mo, 21.10. 20:40 4 1 - 110° O
Mo, 21.10. 20:30 7 2 11 130° SO
Mo, 21.10. 20:00 4 1 7 110° O
Mo, 21.10. 19:30 6 1 7 110° O
Mo, 21.10. 19:00 4 1 7 130° SO
Mo, 21.10. 18:30 4 1 7 140° SO
Ortszeit Untergrenze Bedeckung Gattung
total tief tief mittel hoch
Mo, 21.10. 20:00 1380 m 8/8 3/8 - - -
Mo, 21.10. 14:00 120 m 7/8 7/8 - - -
Mo, 21.10. 8:00 60 m 8/8 8/8 - - -
Mo, 21.10. 2:00 120 m 8/8 8/8 - - -
So, 20.10. 20:00 120 m 7/8 7/8 - - -
So, 20.10. 14:00 300 m 8/8 8/8 - - -
So, 20.10. 8:00 2100 m 8/8 7/8 - - -
So, 20.10. 2:00 2100 m 7/8 7/8 - - -
Ortszeit Bedeckungsgrad in Achtel und Wolkenuntergrenze
Mo, 21.10. 21:30 keine Wolken
Mo, 21.10. 21:20 keine Wolken
Mo, 21.10. 21:10 keine Wolken
Mo, 21.10. 21:00 1(720m) 3(4800m)
Mo, 21.10. 20:50 1(720m) 1(1470m) 3(4800m)
Mo, 21.10. 20:40 1(780m) 3(1500m) 6(4800m)
Mo, 21.10. 20:30 3(1020m) 7(1500m) 8(4800m)
Mo, 21.10. 20:00 3(1380m) 8(3900m) 8(4800m)
Mo, 21.10. 19:30 2(720m) 7(1500m) 8(4500m)
Mo, 21.10. 19:00 2(810m) 8(4200m) 8(8100m)
Mo, 21.10. 18:30 2(960m) 7(4200m) 8(7200m)
Ortszeit Luftdruck NN (hPa) Tendenz (hPa in 3 Std.)
Mo, 21.10. 20:00 1019 + 1,7
Mo, 21.10. 14:00 1017 + 0,7
Mo, 21.10. 8:00 1015 + 0,5
Mo, 21.10. 2:00 1014 + 1,3
So, 20.10. 20:00 1012 + 1,0
So, 20.10. 14:00 1011 + 0,4
So, 20.10. 8:00 1009 + 1,2
So, 20.10. 2:00 1008 + 0,5
Ortszeit Luftdruck NN (hPa) Tendenz (hPa in 3 Std.)
Mo, 21.10. 21:30 1020 + 1,0
Mo, 21.10. 21:20 1020 keine Meldung
Mo, 21.10. 21:10 1020 keine Meldung
Mo, 21.10. 21:00 1020 + 1,3
Mo, 21.10. 20:50 1020 keine Meldung
Mo, 21.10. 20:40 1020 keine Meldung
Mo, 21.10. 20:30 1020 + 1,7
Mo, 21.10. 20:00 1019 + 1,7
Mo, 21.10. 19:30 1019 + 1,7
Mo, 21.10. 19:00 1019 + 1,5
Mo, 21.10. 18:30 1019 + 0,9
Ortszeit Schneehöhe (cm)
Mo, 21.10. 20:00 0
Mo, 21.10. 14:00 0
Mo, 21.10. 8:00 0
Mo, 21.10. 2:00 0
So, 20.10. 20:00 0
So, 20.10. 14:00 0
So, 20.10. 8:00 0
So, 20.10. 2:00 0
Ortszeit Schneehöhe (cm)
Mo, 21.10. 21:30 0
Mo, 21.10. 21:20 0
Mo, 21.10. 21:10 0
Mo, 21.10. 21:00 0
Mo, 21.10. 20:50 0
Mo, 21.10. 20:40 0
Mo, 21.10. 20:30 0
Mo, 21.10. 20:00 0
Mo, 21.10. 19:30 0
Mo, 21.10. 19:00 0
Mo, 21.10. 18:30 0
Link zu dieser Seite / Seite empfehlen

Das Wetter in ...